Terminal Aerodrome Forecast
Issued by NWS

Home | Current Version | Previous Version | Text Only | Print | Product List | Glossary Off
Versions: 1 2 3 4 5 6 7 8 9 10 11 12 13 14 15 16 17 18 19 20

000
FTUS43 KTOP 250700 AAA
TAFFOE
TAF AMD
KFOE 250722Z 2507/2606 17009KT P6SM VCTS SCT100CB
      TEMPO 2508/2509 30010KT 6SM -TSRA BR BKN060CB
     FM250900 15008KT P6SM FEW060 BKN100=

USA.gov is the U.S. government's official web portal to all federal, state and local government web resources and services.